createdAt,value
2022-10-11T00:00:35.345Z,101293.20
2022-10-11T00:03:12.420Z,101295.40
2022-10-11T00:05:48.827Z,101296.00
2022-10-11T00:08:24.969Z,101298.40
2022-10-11T00:11:10.902Z,101298.80
2022-10-11T00:13:47.690Z,101298.60
2022-10-11T00:16:25.107Z,101298.40
2022-10-11T00:19:02.363Z,101296.00
2022-10-11T00:21:40.798Z,101294.00
2022-10-11T00:24:18.260Z,101298.00
2022-10-11T00:26:55.194Z,101296.80
2022-10-11T00:29:31.819Z,101293.40
2022-10-11T00:32:11.154Z,101292.20
2022-10-11T00:34:48.194Z,101291.20
2022-10-11T00:37:24.963Z,101288.00
2022-10-11T00:40:01.604Z,101285.80
2022-10-11T00:42:38.162Z,101288.40
2022-10-11T00:46:02.469Z,101289.80
2022-10-11T00:48:47.149Z,101287.20
2022-10-11T00:51:33.812Z,101284.00
2022-10-11T00:54:14.896Z,101282.80
2022-10-11T00:56:56.616Z,101284.40
2022-10-11T00:59:44.454Z,101280.80
2022-10-11T01:02:26.254Z,101283.00
2022-10-11T01:05:27.712Z,101280.40
2022-10-11T01:08:01.070Z,101279.40
2022-10-11T01:10:37.727Z,101283.40
2022-10-11T01:13:25.750Z,101283.60
2022-10-11T01:16:14.654Z,101279.20
2022-10-11T01:19:04.654Z,101280.40
2022-10-11T01:21:51.114Z,101281.40
2022-10-11T01:25:00.955Z,101279.80
2022-10-11T01:28:02.145Z,101282.20
2022-10-11T01:30:39.849Z,101279.40
2022-10-11T01:33:30.055Z,101277.80
2022-10-11T01:36:20.607Z,101277.40
2022-10-11T01:39:05.328Z,101276.80
2022-10-11T01:41:48.835Z,101273.40
2022-10-11T01:44:26.725Z,101275.20
2022-10-11T01:47:04.090Z,101271.00
2022-10-11T01:49:42.355Z,101272.80
2022-10-11T01:52:19.937Z,101271.00
2022-10-11T01:55:21.204Z,101266.80
2022-10-11T01:58:21.871Z,101266.40
2022-10-11T02:01:13.952Z,101260.80
2022-10-11T02:04:00.860Z,101255.40
2022-10-11T02:06:51.870Z,101251.60
2022-10-11T02:09:39.182Z,101250.20
2022-10-11T02:12:26.359Z,101244.60
2022-10-11T02:15:05.282Z,101240.40
2022-10-11T02:17:51.947Z,101247.20
2022-10-11T02:20:32.951Z,101242.20
2022-10-11T02:23:18.062Z,101242.80
2022-10-11T02:25:58.656Z,101235.80
2022-10-11T02:28:39.442Z,101237.80
2022-10-11T02:31:18.394Z,101235.60
2022-10-11T02:34:07.789Z,101237.20
2022-10-11T02:36:53.744Z,101237.00
2022-10-11T02:39:39.525Z,101231.20
2022-10-11T02:42:23.885Z,101233.00
2022-10-11T02:45:07.697Z,101228.80
2022-10-11T02:47:46.112Z,101228.60
2022-10-11T02:50:24.444Z,101226.00
2022-10-11T02:53:01.729Z,101224.60
2022-10-11T02:55:37.903Z,101220.60
2022-10-11T02:58:14.218Z,101221.40
2022-10-11T03:00:51.511Z,101220.80
2022-10-11T03:03:28.757Z,101222.60
2022-10-11T03:06:09.086Z,101222.80
2022-10-11T03:08:45.797Z,101224.00
2022-10-11T03:11:22.587Z,101219.60
2022-10-11T03:13:59.797Z,101218.60
2022-10-11T03:16:36.440Z,101219.20
2022-10-11T03:19:16.968Z,101221.20
2022-10-11T03:21:55.410Z,101222.20
2022-10-11T03:24:32.258Z,101226.60
2022-10-11T03:27:09.583Z,101225.80
2022-10-11T03:29:46.234Z,101230.80
2022-10-11T03:32:23.370Z,101237.40
2022-10-11T03:35:00.245Z,101235.20
2022-10-11T03:37:36.605Z,101235.00
2022-10-11T03:40:20.223Z,101237.80
2022-10-11T03:42:56.885Z,101241.00
2022-10-11T03:45:33.633Z,101240.00
2022-10-11T03:48:12.370Z,101239.20
2022-10-11T03:50:49.182Z,101244.00
2022-10-11T03:53:26.187Z,101240.60
2022-10-11T03:56:08.236Z,101233.00
2022-10-11T03:58:45.160Z,101232.20
2022-10-11T04:01:22.392Z,101225.60
2022-10-11T04:04:03.340Z,101227.40
2022-10-11T04:06:39.380Z,101225.60
2022-10-11T04:09:16.242Z,101225.20
2022-10-11T04:11:53.856Z,101224.20
2022-10-11T04:14:32.117Z,101226.20
2022-10-11T04:17:09.057Z,101228.20
2022-10-11T04:19:45.833Z,101226.60
2022-10-11T04:22:23.113Z,101228.80
2022-10-11T04:24:59.444Z,101230.00
2022-10-11T04:27:37.536Z,101229.80
2022-10-11T04:30:19.275Z,101235.20
2022-10-11T04:32:56.564Z,101233.60
2022-10-11T04:35:33.744Z,101235.20
2022-10-11T04:38:11.082Z,101237.00
2022-10-11T04:40:47.882Z,101237.60
2022-10-11T04:43:23.995Z,101239.00
2022-10-11T04:46:01.734Z,101241.20
2022-10-11T04:48:39.197Z,101244.20
2022-10-11T04:51:16.790Z,101244.40
2022-10-11T04:53:53.444Z,101246.00
2022-10-11T04:56:30.935Z,101249.20
2022-10-11T04:59:08.564Z,101248.40
2022-10-11T05:01:45.165Z,101246.60
2022-10-11T05:04:21.592Z,101250.00
2022-10-11T05:06:58.062Z,101252.00
2022-10-11T05:09:34.612Z,101252.80
2022-10-11T05:12:13.206Z,101251.20
2022-10-11T05:14:50.635Z,101248.20
2022-10-11T05:17:27.087Z,101251.60
2022-10-11T05:20:04.029Z,101250.00
2022-10-11T05:22:41.379Z,101252.00
2022-10-11T05:25:17.984Z,101249.20
2022-10-11T05:27:54.580Z,101258.20
2022-10-11T05:30:31.296Z,101259.20
2022-10-11T05:33:08.878Z,101262.00
2022-10-11T05:35:46.184Z,101258.00
2022-10-11T05:38:24.674Z,101261.40
2022-10-11T05:41:05.182Z,101264.20
2022-10-11T05:43:41.837Z,101267.20
2022-10-11T05:46:19.245Z,101266.40
2022-10-11T05:48:56.089Z,101267.60
2022-10-11T05:51:34.047Z,101274.80
2022-10-11T05:54:11.091Z,101277.80
2022-10-11T05:56:47.720Z,101284.00
2022-10-11T05:59:24.827Z,101289.20
2022-10-11T06:02:01.804Z,101289.00
2022-10-11T06:04:41.282Z,101283.00
2022-10-11T06:07:19.052Z,101286.60
2022-10-11T06:09:55.778Z,101291.60
2022-10-11T06:12:34.154Z,101294.40
2022-10-11T06:15:14.810Z,101295.00
2022-10-11T06:17:52.409Z,101299.40
2022-10-11T06:20:31.444Z,101307.20
2022-10-11T06:23:08.934Z,101303.80
2022-10-11T06:25:45.923Z,101300.40
2022-10-11T06:28:21.996Z,101308.20
2022-10-11T06:30:58.905Z,101311.20
2022-10-11T06:33:35.240Z,101311.40
2022-10-11T06:36:17.389Z,101309.60
2022-10-11T06:38:56.057Z,101309.00
2022-10-11T06:41:33.996Z,101315.60
2022-10-11T06:44:14.423Z,101317.80
2022-10-11T06:46:51.588Z,101319.20
2022-10-11T06:49:28.977Z,101321.00
2022-10-11T06:52:06.762Z,101322.00
2022-10-11T06:54:45.027Z,101322.80
2022-10-11T06:57:21.462Z,101326.40
2022-10-11T06:59:59.153Z,101329.40
2022-10-11T07:02:36.979Z,101333.00
2022-10-11T07:05:18.209Z,101332.80
2022-10-11T07:07:55.741Z,101338.20
2022-10-11T07:10:32.968Z,101335.20
2022-10-11T07:13:09.910Z,101334.60
2022-10-11T07:15:48.169Z,101335.20
2022-10-11T07:18:24.857Z,101342.00
2022-10-11T07:21:02.141Z,101334.80
2022-10-11T07:23:38.485Z,101335.20
2022-10-11T07:26:18.004Z,101337.40
2022-10-11T07:28:54.649Z,101338.20
2022-10-11T07:31:30.846Z,101338.80
2022-10-11T07:34:08.425Z,101340.80
2022-10-11T07:36:45.606Z,101335.80
2022-10-11T07:39:22.209Z,101339.60
2022-10-11T07:41:59.622Z,101339.60
2022-10-11T07:44:37.251Z,101344.60
2022-10-11T07:47:14.185Z,101343.40
2022-10-11T07:49:51.297Z,101345.20
2022-10-11T07:52:28.338Z,101345.60
2022-10-11T07:55:05.184Z,101342.20
2022-10-11T07:57:42.527Z,101340.80
2022-10-11T08:00:24.033Z,101339.60
2022-10-11T08:03:01.440Z,101338.40
2022-10-11T08:05:39.767Z,101339.40
2022-10-11T08:08:16.622Z,101344.80
2022-10-11T08:10:54.073Z,101342.80
2022-10-11T08:13:30.411Z,101346.20
2022-10-11T08:16:16.170Z,101346.40
2022-10-11T08:18:54.526Z,101344.80
2022-10-11T08:21:31.904Z,101344.20
2022-10-11T08:24:10.602Z,101354.00
2022-10-11T08:26:47.399Z,101356.00
2022-10-11T08:29:23.613Z,101362.40
2022-10-11T08:32:00.730Z,101358.60
2022-10-11T08:34:36.392Z,101359.60
2022-10-11T08:37:14.332Z,101361.40
2022-10-11T08:39:51.533Z,101364.60
2022-10-11T08:42:39.005Z,101364.60
2022-10-11T08:45:29.145Z,101361.20
2022-10-11T08:48:15.804Z,101356.60
2022-10-11T08:50:56.900Z,101359.20
2022-10-11T08:53:46.162Z,101364.40
2022-10-11T08:56:26.882Z,101364.80
2022-10-11T08:59:12.279Z,101367.60
2022-10-11T09:01:56.950Z,101364.60
2022-10-11T09:04:34.074Z,101361.00
2022-10-11T09:07:26.941Z,101359.20
2022-10-11T09:10:29.867Z,101353.40
2022-10-11T09:13:20.850Z,101355.80
2022-10-11T09:16:09.532Z,101353.20
2022-10-11T09:19:13.072Z,101351.60
2022-10-11T09:22:02.468Z,101351.00
2022-10-11T09:25:00.921Z,101359.60
2022-10-11T09:28:03.159Z,101360.00
2022-10-11T09:30:49.127Z,101356.00
2022-10-11T09:33:44.653Z,101354.00
2022-10-11T09:36:31.641Z,101356.40
2022-10-11T09:39:18.700Z,101357.40
2022-10-11T09:42:05.061Z,101358.20
2022-10-11T09:44:50.929Z,101360.80
2022-10-11T09:47:31.691Z,101365.80
2022-10-11T09:50:17.057Z,101364.00
2022-10-11T09:53:01.100Z,101365.00
2022-10-11T09:55:50.634Z,101363.20
2022-10-11T09:58:40.292Z,101358.80
2022-10-11T10:01:26.604Z,101358.80
2022-10-11T10:04:28.300Z,101360.80
2022-10-11T10:07:19.432Z,101359.60
2022-10-11T10:09:59.080Z,101359.40
2022-10-11T10:12:36.397Z,101362.60
2022-10-11T10:15:23.574Z,101356.20
2022-10-11T10:18:00.742Z,101357.00
2022-10-11T10:20:40.771Z,101358.00
2022-10-11T10:23:29.335Z,101354.20
2022-10-11T10:26:22.831Z,101356.20
2022-10-11T10:29:20.214Z,101358.60
2022-10-11T10:32:15.943Z,101358.80
2022-10-11T10:35:05.588Z,101357.40
2022-10-11T10:37:49.141Z,101360.40
2022-10-11T10:40:32.824Z,101364.60
2022-10-11T10:43:12.207Z,101368.00
2022-10-11T10:46:12.526Z,101374.80
2022-10-11T10:49:41.550Z,101376.20
2022-10-11T10:52:16.458Z,101374.00
2022-10-11T10:55:01.236Z,101368.60
2022-10-11T10:57:50.132Z,101361.80
2022-10-11T11:00:41.731Z,101359.00
2022-10-11T11:03:28.766Z,101357.20
2022-10-11T11:06:14.749Z,101348.80
2022-10-11T11:09:12.979Z,101349.40
2022-10-11T11:12:08.191Z,101344.80
2022-10-11T11:15:03.876Z,101345.40
2022-10-11T11:17:58.408Z,101343.60
2022-10-11T11:20:59.073Z,101340.40
2022-10-11T11:23:49.459Z,101343.20
2022-10-11T11:26:44.041Z,101342.00
2022-10-11T11:29:36.832Z,101337.40
2022-10-11T11:32:27.599Z,101340.40
2022-10-11T11:35:13.243Z,101333.00
2022-10-11T11:37:59.283Z,101330.80
2022-10-11T11:40:45.868Z,101328.00
2022-10-11T11:43:30.137Z,101324.60
2022-10-11T11:46:15.023Z,101329.60
2022-10-11T11:48:54.932Z,101330.60
2022-10-11T11:51:37.652Z,101331.40
2022-10-11T11:54:29.578Z,101335.60
2022-10-11T11:57:15.994Z,101334.40
2022-10-11T12:00:04.000Z,101338.00
2022-10-11T12:02:55.560Z,101335.40
2022-10-11T12:05:37.111Z,101335.40
2022-10-11T12:08:33.110Z,101336.80
2022-10-11T12:11:21.793Z,101336.40
2022-10-11T12:14:01.166Z,101333.60
2022-10-11T12:16:58.234Z,101333.00
2022-10-11T12:19:35.387Z,101330.40
2022-10-11T12:22:58.524Z,101326.40
2022-10-11T12:25:48.597Z,101327.40
2022-10-11T12:29:06.988Z,101328.00
2022-10-11T12:31:46.208Z,101328.60
2022-10-11T12:37:54.897Z,101327.60
2022-10-11T12:40:48.724Z,101320.20
2022-10-11T12:44:11.301Z,101319.40
2022-10-11T12:47:16.264Z,101314.00
2022-10-11T12:50:16.162Z,101313.00
2022-10-11T12:53:13.237Z,101316.20
2022-10-11T12:56:05.183Z,101310.40
2022-10-11T12:58:43.913Z,101312.40
2022-10-11T13:01:32.176Z,101313.60
2022-10-11T13:04:14.071Z,101311.00
2022-10-11T13:06:57.072Z,101312.00
2022-10-11T13:09:39.252Z,101307.80
2022-10-11T13:12:23.548Z,101304.00
2022-10-11T13:15:11.732Z,101302.00
2022-10-11T13:17:49.295Z,101304.80
2022-10-11T13:20:30.473Z,101303.20
2022-10-11T13:23:07.326Z,101302.00
2022-10-11T13:25:46.540Z,101295.80
2022-10-11T13:28:23.865Z,101295.00
2022-10-11T13:31:03.628Z,101288.00
2022-10-11T13:33:46.188Z,101293.20
2022-10-11T13:36:24.189Z,101285.40
2022-10-11T13:39:03.070Z,101282.60
2022-10-11T13:41:39.230Z,101279.00
2022-10-11T13:44:22.312Z,101282.00
2022-10-11T13:46:58.678Z,101273.80
2022-10-11T13:49:43.849Z,101279.00
2022-10-11T13:52:29.855Z,101276.40
2022-10-11T13:55:25.044Z,101278.60
2022-10-11T13:58:03.651Z,101277.60
2022-10-11T14:00:54.937Z,101273.80
2022-10-11T14:03:43.458Z,101276.80
2022-10-11T14:06:19.529Z,101281.20
2022-10-11T14:08:59.559Z,101279.80
2022-10-11T14:11:44.175Z,101275.60
2022-10-11T14:14:50.260Z,101276.40
2022-10-11T14:17:40.939Z,101271.40
2022-10-11T14:20:42.509Z,101270.40
2022-10-11T14:23:19.547Z,101270.20
2022-10-11T14:25:57.334Z,101266.60
2022-10-11T14:28:34.194Z,101263.80
2022-10-11T14:31:11.676Z,101260.40
2022-10-11T14:33:47.754Z,101264.40
2022-10-11T14:36:24.138Z,101260.60
2022-10-11T14:39:01.715Z,101254.00
2022-10-11T14:41:38.194Z,101253.00
2022-10-11T14:44:14.835Z,101250.00
2022-10-11T14:46:54.304Z,101254.20
2022-10-11T14:49:35.101Z,101254.20
2022-10-11T14:52:16.085Z,101253.20
2022-10-11T14:54:53.635Z,101253.40
2022-10-11T14:57:31.332Z,101251.60
2022-10-11T15:00:10.058Z,101249.60
2022-10-11T15:02:47.970Z,101251.40
2022-10-11T15:05:29.821Z,101248.60
2022-10-11T15:08:11.935Z,101249.00
2022-10-11T15:10:49.444Z,101243.60
2022-10-11T15:13:26.391Z,101244.60
2022-10-11T15:16:03.634Z,101245.20
2022-10-11T15:18:40.743Z,101244.80
2022-10-11T15:21:21.437Z,101243.20
2022-10-11T15:23:58.196Z,101240.20
2022-10-11T15:26:36.740Z,101242.40
2022-10-11T15:29:17.270Z,101240.20
2022-10-11T15:31:54.224Z,101237.80
2022-10-11T15:34:30.915Z,101236.60
2022-10-11T15:37:08.094Z,101238.20
2022-10-11T15:39:45.070Z,101242.00
2022-10-11T15:42:21.515Z,101248.40
2022-10-11T15:44:59.069Z,101244.20
2022-10-11T15:47:36.297Z,101244.40
2022-10-11T15:50:35.587Z,101246.20
2022-10-11T15:53:16.004Z,101243.80
2022-10-11T15:55:57.671Z,101250.20
2022-10-11T15:58:37.908Z,101250.00
2022-10-11T16:01:22.410Z,101251.80
2022-10-11T16:03:59.662Z,101252.00
2022-10-11T16:06:37.144Z,101255.60
2022-10-11T16:09:15.479Z,101255.20
2022-10-11T16:11:52.735Z,101255.00
2022-10-11T16:14:29.570Z,101252.00
2022-10-11T16:17:06.716Z,101254.20
2022-10-11T16:19:44.795Z,101255.60
2022-10-11T16:22:22.331Z,101257.00
2022-10-11T16:24:59.422Z,101259.00
2022-10-11T16:27:36.072Z,101257.60
2022-10-11T16:30:17.303Z,101262.20
2022-10-11T16:32:54.241Z,101260.80
2022-10-11T16:35:32.674Z,101264.00
2022-10-11T16:38:11.346Z,101265.60
2022-10-11T16:40:50.141Z,101270.40
2022-10-11T16:43:27.272Z,101266.80
2022-10-11T16:46:06.513Z,101272.40
2022-10-11T16:48:43.157Z,101273.80
2022-10-11T16:51:21.200Z,101273.20
2022-10-11T16:53:58.349Z,101277.00
2022-10-11T16:56:39.738Z,101277.60
2022-10-11T16:59:16.377Z,101287.00
2022-10-11T17:01:55.900Z,101287.80
2022-10-11T17:04:33.605Z,101293.80
2022-10-11T17:07:13.089Z,101297.20
2022-10-11T17:09:51.078Z,101296.40
2022-10-11T17:12:29.969Z,101299.60
2022-10-11T17:15:07.453Z,101301.40
2022-10-11T17:17:44.887Z,101301.80
2022-10-11T17:20:26.179Z,101306.00
2022-10-11T17:23:01.945Z,101307.20
2022-10-11T17:25:42.234Z,101307.60
2022-10-11T17:28:20.156Z,101307.00
2022-10-11T17:31:01.006Z,101306.20
2022-10-11T17:33:37.228Z,101305.80
2022-10-11T17:36:25.781Z,101310.00
2022-10-11T17:39:04.981Z,101309.00
2022-10-11T17:41:41.786Z,101312.40
2022-10-11T17:44:20.115Z,101313.20
2022-10-11T17:46:56.932Z,101315.80
2022-10-11T17:49:33.832Z,101317.20
2022-10-11T17:52:09.952Z,101318.60
2022-10-11T17:54:46.985Z,101317.40
2022-10-11T17:57:23.442Z,101320.20
2022-10-11T17:59:59.723Z,101319.60
2022-10-11T18:02:36.125Z,101324.20
2022-10-11T18:05:18.423Z,101325.60
2022-10-11T18:07:57.254Z,101327.20
2022-10-11T18:10:34.976Z,101327.60
2022-10-11T18:13:15.214Z,101325.60
2022-10-11T18:15:53.716Z,101320.80
2022-10-11T18:18:30.504Z,101317.80
2022-10-11T18:21:08.732Z,101317.80
2022-10-11T18:23:45.799Z,101318.40
2022-10-11T18:26:29.406Z,101317.00
2022-10-11T18:29:07.269Z,101315.20
2022-10-11T18:31:44.278Z,101321.00
2022-10-11T18:34:20.466Z,101323.20
2022-10-11T18:36:56.291Z,101325.60
2022-10-11T18:39:32.678Z,101334.00
2022-10-11T18:42:10.126Z,101331.80
2022-10-11T18:44:46.898Z,101337.20
2022-10-11T18:47:23.513Z,101341.00
2022-10-11T18:50:00.192Z,101338.80
2022-10-11T18:52:39.198Z,101342.00
2022-10-11T18:55:19.831Z,101341.60
2022-10-11T18:57:57.419Z,101340.40
2022-10-11T19:00:42.156Z,101344.60
2022-10-11T19:03:18.325Z,101343.40
2022-10-11T19:05:55.254Z,101341.40
2022-10-11T19:08:32.750Z,101346.80
2022-10-11T19:11:15.958Z,101354.60
2022-10-11T19:13:56.245Z,101357.60
2022-10-11T19:16:33.986Z,101359.00
2022-10-11T19:19:11.310Z,101351.20
2022-10-11T19:21:49.597Z,101352.40
2022-10-11T19:24:28.761Z,101355.60
2022-10-11T19:27:06.169Z,101355.20
2022-10-11T19:29:42.458Z,101357.40
2022-10-11T19:32:19.347Z,101361.80
2022-10-11T19:34:55.950Z,101359.20
2022-10-11T19:37:32.782Z,101360.80
2022-10-11T19:40:14.155Z,101363.60
2022-10-11T19:42:51.882Z,101368.80
2022-10-11T19:45:28.061Z,101367.20
2022-10-11T19:48:04.616Z,101371.00
2022-10-11T19:50:42.399Z,101373.20
2022-10-11T19:53:18.293Z,101371.20
2022-10-11T19:55:55.003Z,101372.80
2022-10-11T19:58:32.492Z,101371.20
2022-10-11T20:01:13.428Z,101373.40
2022-10-11T20:03:53.994Z,101370.40
2022-10-11T20:06:38.108Z,101377.40
2022-10-11T20:09:29.114Z,101375.60
2022-10-11T20:12:06.152Z,101380.40
2022-10-11T20:14:43.094Z,101378.60
2022-10-11T20:17:19.585Z,101385.40
2022-10-11T20:19:55.949Z,101390.20
2022-10-11T20:22:32.245Z,101392.80
2022-10-11T20:25:11.589Z,101392.80
2022-10-11T20:27:51.113Z,101394.00
2022-10-11T20:30:28.426Z,101394.60
2022-10-11T20:33:04.233Z,101399.80
2022-10-11T20:35:41.407Z,101402.40
2022-10-11T20:38:17.768Z,101396.00
2022-10-11T20:40:55.305Z,101395.60
2022-10-11T20:43:32.745Z,101396.60
2022-10-11T20:46:10.833Z,101396.60
2022-10-11T20:49:01.128Z,101395.80
2022-10-11T20:51:40.603Z,101400.00
2022-10-11T20:54:17.201Z,101401.40
2022-10-11T20:56:53.747Z,101399.80
2022-10-11T20:59:32.569Z,101402.20
2022-10-11T21:02:18.019Z,101398.60
2022-10-11T21:04:58.098Z,101398.40
2022-10-11T21:07:37.066Z,101398.00
2022-10-11T21:10:15.630Z,101400.60
2022-10-11T21:12:52.502Z,101402.80
2022-10-11T21:15:31.677Z,101403.00
2022-10-11T21:18:12.284Z,101404.20
2022-10-11T21:20:49.154Z,101399.80
2022-10-11T21:23:25.848Z,101405.00
2022-10-11T21:26:07.866Z,101407.40
2022-10-11T21:28:47.136Z,101407.40
2022-10-11T21:31:28.412Z,101410.80
2022-10-11T21:34:11.727Z,101405.80
2022-10-11T21:36:49.398Z,101406.40
2022-10-11T21:39:29.910Z,101406.20
2022-10-11T21:42:07.430Z,101404.80
2022-10-11T21:44:43.836Z,101405.40
2022-10-11T21:47:20.593Z,101410.40
2022-10-11T21:50:09.869Z,101411.40
2022-10-11T21:52:46.547Z,101412.40
2022-10-11T21:55:24.483Z,101409.00
2022-10-11T21:58:02.520Z,101408.00
2022-10-11T22:00:39.376Z,101410.40
2022-10-11T22:03:16.836Z,101414.20
2022-10-11T22:05:54.166Z,101409.60
2022-10-11T22:08:34.865Z,101406.60
2022-10-11T22:11:12.062Z,101403.40
2022-10-11T22:13:48.567Z,101404.60
2022-10-11T22:16:25.550Z,101403.80
2022-10-11T22:19:01.935Z,101400.00
2022-10-11T22:21:44.910Z,101399.40
2022-10-11T22:24:22.517Z,101398.40
2022-10-11T22:26:59.890Z,101394.60
2022-10-11T22:29:37.499Z,101389.60
2022-10-11T22:32:14.734Z,101385.00
2022-10-11T22:34:51.660Z,101389.60
2022-10-11T22:37:28.684Z,101385.20
2022-10-11T22:40:05.917Z,101385.40
2022-10-11T22:42:42.376Z,101380.80
2022-10-11T22:45:21.184Z,101382.80
2022-10-11T22:47:57.847Z,101385.00
2022-10-11T22:50:34.334Z,101382.40
2022-10-11T22:53:12.178Z,101384.00
2022-10-11T22:55:49.471Z,101387.80
2022-10-11T22:58:26.148Z,101384.00
2022-10-11T23:01:08.220Z,101383.00
2022-10-11T23:03:45.143Z,101387.00
2022-10-11T23:06:21.801Z,101392.40
2022-10-11T23:08:58.106Z,101399.60
2022-10-11T23:11:35.054Z,101391.80
2022-10-11T23:14:11.168Z,101395.00
2022-10-11T23:16:47.855Z,101400.60
2022-10-11T23:19:24.462Z,101395.60
2022-10-11T23:22:00.534Z,101399.00
2022-10-11T23:24:37.100Z,101400.00
2022-10-11T23:27:12.667Z,101405.40
2022-10-11T23:29:48.945Z,101405.60
2022-10-11T23:32:26.394Z,101411.20
2022-10-11T23:35:02.524Z,101407.60
2022-10-11T23:37:39.256Z,101412.00
2022-10-11T23:40:19.120Z,101412.00
2022-10-11T23:42:55.962Z,101413.00
2022-10-11T23:45:32.014Z,101415.20
2022-10-11T23:48:09.171Z,101412.20
2022-10-11T23:50:45.488Z,101406.20
2022-10-11T23:53:21.875Z,101406.60
2022-10-11T23:55:58.499Z,101410.80
2022-10-11T23:58:35.193Z,101409.80
